Time;durP1;ratioP1;P1;durP2;ratioP2;P2;SDS_P1;SDS_P2;PMS_P1;PMS_P2;Temp;Humidity;BMP_temperature;BMP_pressure;BME280_temperature;BME280_humidity;BME280_pressure;Samples;Min_cycle;Max_cycle;Signal;HPM_P1;HPM_P2
2022/01/20 00:01:46;;;;;;;19.73;3.92;;;;;;;2.28;100.00;102375.75;5012631;28;20036;-74
2022/01/20 00:04:39;;;;;;;22.70;3.47;;;;;;;2.31;100.00;102365.09;5011509;28;20037;-73
2022/01/20 00:20:41;;;;;;;18.27;3.10;;;;;;;2.52;100.00;102385.03;5015851;28;20033;-73
2022/01/20 00:26:11;;;;;;;;;;;;;;;2.29;100.00;102392.56;5011270;28;20425;-74
2022/01/20 00:28:50;;;;;;;12.50;2.13;;;;;;;2.31;100.00;102404.00;5001294;28;19920;-73
2022/01/20 00:33:50;;;;;;;17.30;2.38;;;;;;;2.24;100.00;102398.81;5012018;28;20395;-73
2022/01/20 00:38:42;;;;;;;18.02;2.20;;;;;;;2.22;100.00;102392.66;5018962;28;20037;-73
2022/01/20 00:41:14;;;;;;;11.80;2.70;;;;;;;2.34;100.00;102388.91;5009961;28;20455;-74
2022/01/20 00:43:40;;;;;;;18.50;3.53;;;;;;;2.36;100.00;102396.84;5017953;28;20123;-74
2022/01/20 00:46:06;;;;;;;28.38;3.85;;;;;;;2.29;100.00;102377.50;5009600;28;20025;-74
2022/01/20 00:48:31;;;;;;;19.27;3.15;;;;;;;2.41;100.00;102400.25;5010746;28;20573;-73
2022/01/20 00:50:56;;;;;;;25.25;4.45;;;;;;;2.39;100.00;102381.75;5010731;28;20069;-73
2022/01/20 00:53:22;;;;;;;16.83;2.38;;;;;;;2.50;100.00;102386.84;5014551;28;20041;-73
2022/01/20 00:55:47;;;;;;;19.75;2.50;;;;;;;2.59;100.00;102395.53;5018634;28;20036;-73
2022/01/20 00:58:12;;;;;;;20.30;3.00;;;;;;;2.67;100.00;102399.78;5011017;28;20037;-73
2022/01/20 01:00:38;;;;;;;20.15;2.35;;;;;;;2.54;100.00;102380.59;5019162;28;20041;-73
2022/01/20 01:03:03;;;;;;;15.65;2.58;;;;;;;2.68;100.00;102400.66;5008409;28;20061;-72
2022/01/20 01:05:29;;;;;;;16.40;2.47;;;;;;;2.73;100.00;102400.56;5016555;28;20040;-73
2022/01/20 01:07:56;;;;;;;22.50;3.10;;;;;;;2.60;100.00;102406.09;5008953;28;20076;-73
2022/01/20 01:10:26;;;;;;;16.50;2.63;;;;;;;2.68;100.00;102414.78;5011372;28;20466;-73
2022/01/20 01:13:03;;;;;;;20.77;3.05;;;;;;;2.70;100.00;102428.00;5010178;28;20076;-73
2022/01/20 01:15:40;;;;;;;13.73;2.70;;;;;;;2.70;100.00;102422.72;5016051;28;20397;-73
2022/01/20 01:23:31;;;;;;;3.75;2.00;;;;;;;2.76;100.00;102411.97;5017343;28;20042;-73
2022/01/20 01:25:56;;;;;;;12.18;1.77;;;;;;;2.78;100.00;102420.78;5015876;28;20036;-72
2022/01/20 01:28:25;;;;;;;12.48;2.10;;;;;;;2.76;100.00;102414.63;5017250;28;20030;-73
2022/01/20 01:33:18;;;;;;;12.48;1.88;;;;;;;2.72;100.00;102409.44;5012143;28;20038;-73
2022/01/20 01:35:43;;;;;;;11.63;2.00;;;;;;;2.61;100.00;102401.69;5015608;28;20312;-73
2022/01/20 01:40:38;;;;;;;16.38;2.60;;;;;;;2.62;100.00;102406.94;5011821;28;20025;-72
2022/01/20 01:43:12;;;;;;;9.55;2.08;;;;;;;2.68;100.00;102403.28;5016634;28;20030;-72
2022/01/20 01:45:40;;;;;;;14.35;1.85;;;;;;;2.65;100.00;102408.69;5015699;28;20072;-72
2022/01/20 01:48:05;;;;;;;11.63;1.20;;;;;;;2.64;100.00;102402.50;5011863;28;20038;-73
2022/01/20 01:50:31;;;;;;;10.90;2.33;;;;;;;2.64;100.00;102410.44;5020304;28;20373;-72
2022/01/20 01:52:58;;;;;;;13.73;2.35;;;;;;;2.72;100.00;102414.75;5017949;28;20064;-72
2022/01/20 01:55:24;;;;;;;6.30;1.90;;;;;;;2.79;100.00;102411.94;5016117;28;20125;-73
2022/01/20 01:57:50;;;;;;;8.43;1.58;;;;;;;2.77;100.00;102418.19;5015854;28;20037;-73
2022/01/20 02:00:17;;;;;;;11.13;2.22;;;;;;;2.82;100.00;102426.91;5015635;28;20121;-73
2022/01/20 02:02:43;;;;;;;8.63;1.70;;;;;;;2.75;100.00;102412.88;5001361;28;20032;-73
2022/01/20 02:05:11;;;;;;;11.90;1.30;;;;;;;2.85;100.00;102418.88;5019925;28;20471;-72
2022/01/20 02:08:04;;;;;;;8.05;1.70;;;;;;;2.80;100.00;102403.06;5013807;28;20057;-73
2022/01/20 02:18:45;;;;;;;7.50;1.45;;;;;;;2.68;100.00;102425.41;5014278;28;20112;-73
2022/01/20 02:21:11;;;;;;;16.75;2.30;;;;;;;2.61;100.00;102412.28;5000134;28;20040;-73
2022/01/20 02:23:36;;;;;;;10.38;1.65;;;;;;;2.74;100.00;102428.84;5012155;28;20029;-73
2022/01/20 02:26:01;;;;;;;10.25;2.13;;;;;;;2.70;100.00;102414.75;5015940;28;20156;-73
2022/01/20 02:28:27;;;;;;;6.55;1.73;;;;;;;2.78;100.00;102422.59;5015544;28;20057;-73
2022/01/20 02:30:53;;;;;;;12.20;2.38;;;;;;;2.82;100.00;102421.59;5012350;28;20033;-73
2022/01/20 02:33:20;;;;;;;11.63;1.23;;;;;;;2.82;100.00;102426.91;5005047;28;20745;-73
2022/01/20 02:35:48;;;;;;;14.20;1.80;;;;;;;2.87;100.00;102417.06;5017372;28;20060;-73
2022/01/20 02:38:24;;;;;;;13.45;2.17;;;;;;;2.87;100.00;102417.06;5016355;28;20120;-74
2022/01/20 02:46:17;;;;;;;17.02;2.00;;;;;;;2.99;100.00;102398.25;5015354;28;20400;-73
2022/01/20 02:48:42;;;;;;;13.93;2.92;;;;;;;2.91;100.00;102397.53;5007780;28;20033;-73
2022/01/20 02:51:08;;;;;;;13.90;2.67;;;;;;;2.90;100.00;102409.06;5011983;28;20091;-74
2022/01/20 02:53:33;;;;;;;13.48;2.35;;;;;;;2.95;100.00;102406.31;5001979;28;20379;-72
2022/01/20 02:55:58;;;;;;;10.77;2.42;;;;;;;2.77;100.00;102403.13;5002697;28;20456;-74
2022/01/20 02:58:24;;;;;;;12.93;1.70;;;;;;;2.84;100.00;102415.38;4999972;28;20030;-73
2022/01/20 03:00:50;;;;;;;15.82;2.15;;;;;;;2.85;100.00;102419.78;5012593;28;20442;-73
2022/01/20 03:03:16;;;;;;;8.35;1.67;;;;;;;2.68;100.00;102406.84;5016355;28;20460;-73
2022/01/20 03:05:41;;;;;;;11.48;1.80;;;;;;;2.64;100.00;102401.63;5002829;28;20475;-73
2022/01/20 03:08:07;;;;;;;5.22;1.40;;;;;;;2.50;100.00;102405.41;5011644;28;20486;-73
2022/01/20 03:10:32;;;;;;;12.82;2.63;;;;;;;2.52;100.00;102408.00;5012077;28;20091;-73
2022/01/20 03:12:58;;;;;;;9.55;1.80;;;;;;;2.47;100.00;102407.25;5011699;28;20073;-73
2022/01/20 03:15:24;;;;;;;13.32;2.13;;;;;;;2.47;100.00;102413.41;5010824;28;20061;-73
2022/01/20 03:17:49;;;;;;;11.02;2.00;;;;;;;2.49;100.00;102411.59;5016756;28;20107;-73
2022/01/20 03:20:15;;;;;;;11.77;1.77;;;;;;;2.56;100.00;102388.50;5015084;28;20065;-72
2022/01/20 03:22:40;;;;;;;7.78;2.08;;;;;;;2.66;100.00;102403.34;5012107;28;20118;-73
2022/01/20 03:25:06;;;;;;;7.07;2.53;;;;;;;2.75;100.00;102409.38;5013111;28;20037;-72
2022/01/20 03:27:31;;;;;;;11.68;1.70;;;;;;;2.78;100.00;102406.66;5012025;28;20503;-72
2022/01/20 03:29:56;;;;;;;11.95;2.38;;;;;;;2.82;100.00;102406.56;5012597;28;20032;-72
2022/01/20 03:32:22;;;;;;;12.43;2.28;;;;;;;2.81;100.00;102404.81;5013486;28;20116;-72
2022/01/20 03:34:47;;;;;;;16.88;1.98;;;;;;;2.83;100.00;102396.81;5011249;28;20397;-72
2022/01/20 03:37:12;;;;;;;14.30;3.00;;;;;;;2.90;100.00;102402.91;5014221;28;20117;-72
2022/01/20 03:39:38;;;;;;;16.88;1.80;;;;;;;2.88;100.00;102400.25;5004310;28;20711;-73
2022/01/20 03:42:03;;;;;;;15.13;1.67;;;;;;;2.92;100.00;102377.19;5013999;28;20105;-72
2022/01/20 03:44:29;;;;;;;11.13;1.90;;;;;;;2.90;100.00;102376.38;5015152;28;20060;-73
2022/01/20 03:46:54;;;;;;;15.13;1.65;;;;;;;2.93;100.00;102382.47;5011566;28;20036;-73
2022/01/20 03:49:32;;;;;;;12.65;2.10;;;;;;;2.93;100.00;102378.91;5018776;28;20080;-73
2022/01/20 03:51:58;;;;;;;18.80;3.42;;;;;;;2.99;100.00;102392.97;5009100;28;20022;-72
2022/01/20 03:54:23;;;;;;;11.88;3.03;;;;;;;3.02;100.00;102384.03;5014724;28;20593;-72
2022/01/20 03:56:48;;;;;;;13.88;2.35;;;;;;;3.20;100.00;102384.53;5012123;28;20057;-72
2022/01/20 03:59:14;;;;;;;10.25;1.10;;;;;;;3.22;100.00;102396.91;5013806;28;20026;-73
2022/01/20 04:01:39;;;;;;;9.13;1.45;;;;;;;3.19;100.00;102396.97;5015385;28;20041;-73
2022/01/20 04:04:04;;;;;;;5.10;1.17;;;;;;;3.13;100.00;102395.31;5012795;28;20540;-73
2022/01/20 04:06:30;;;;;;;3.58;0.73;;;;;;;2.92;100.00;102382.47;5014171;28;20045;-73
2022/01/20 04:08:56;;;;;;;7.70;1.73;;;;;;;3.21;100.00;102412.84;4993475;28;20075;-72
2022/01/20 04:11:24;;;;;;;10.48;1.48;;;;;;;2.99;100.00;102411.53;5009544;28;20030;-72
2022/01/20 04:13:51;;;;;;;8.70;1.40;;;;;;;3.00;100.00;102412.41;5000300;28;20064;-72
2022/01/20 04:16:20;;;;;;;7.90;1.20;;;;;;;3.10;100.00;102407.75;5012265;28;20025;-73
2022/01/20 04:18:56;;;;;;;8.57;1.67;;;;;;;3.17;100.00;102427.09;5000089;28;20376;-72
2022/01/20 04:21:28;;;;;;;5.47;1.30;;;;;;;3.10;100.00;102450.22;5011039;28;20048;-73
2022/01/20 04:23:54;;;;;;;12.05;2.33;;;;;;;3.14;100.00;102442.19;5011837;28;20057;-70
2022/01/20 04:26:21;;;;;;;3.95;1.25;;;;;;;3.09;100.00;102454.69;5011744;28;20032;-71
2022/01/20 04:28:46;;;;;;;7.88;1.48;;;;;;;3.29;100.00;102450.72;5009069;28;20022;-73
2022/01/20 04:31:12;;;;;;;6.13;1.33;;;;;;;3.12;100.00;102446.66;5014003;28;20075;-73
2022/01/20 04:33:37;;;;;;;12.73;2.30;;;;;;;3.10;100.00;102443.16;5014279;28;20399;-71
2022/01/20 04:36:04;;;;;;;11.40;1.45;;;;;;;2.93;100.00;102453.22;5009651;28;20068;-72
2022/01/20 04:38:30;;;;;;;12.05;2.33;;;;;;;2.88;100.00;102442.69;5008448;28;20033;-72
2022/01/20 04:40:55;;;;;;;4.90;1.20;;;;;;;2.81;100.00;102449.03;5014597;28;20036;-72
2022/01/20 04:43:21;;;;;;;9.43;1.90;;;;;;;2.76;100.00;102451.78;5013148;28;20060;-72
2022/01/20 04:45:54;;;;;;;10.95;1.38;;;;;;;2.72;100.00;102449.22;5015445;28;20035;-71
2022/01/20 04:48:28;;;;;;;14.45;2.53;;;;;;;2.69;100.00;102450.13;5011193;28;20037;-72
2022/01/20 04:59:05;;;;;;;8.70;1.40;;;;;;;2.54;100.00;102452.19;5013722;28;20060;-72
2022/01/20 05:01:30;;;;;;;7.07;1.90;;;;;;;2.56;100.00;102465.41;5011048;28;20391;-72
2022/01/20 05:03:57;;;;;;;13.93;1.83;;;;;;;2.69;100.00;102468.69;5009267;28;20052;-72
2022/01/20 05:06:22;;;;;;;14.57;1.73;;;;;;;2.65;100.00;102456.44;5006417;28;20108;-73
2022/01/20 05:08:49;;;;;;;12.75;1.77;;;;;;;2.77;100.00;102464.13;5007809;28;20113;-72
2022/01/20 05:11:15;;;;;;;9.90;1.13;;;;;;;2.63;100.00;102472.34;5023287;28;20425;-72
2022/01/20 05:13:41;;;;;;;7.38;1.40;;;;;;;2.72;100.00;102479.25;5011942;28;20029;-73
2022/01/20 05:16:06;;;;;;;12.50;1.42;;;;;;;2.58;100.00;102479.50;4996351;28;20136;-73
2022/01/20 05:18:31;;;;;;;9.52;1.20;;;;;;;2.75;100.00;102502.22;5008533;28;20338;-72
2022/01/20 05:20:57;;;;;;;5.15;1.13;;;;;;;2.93;100.00;102512.47;5005060;28;20192;-73
2022/01/20 05:23:22;;;;;;;8.15;1.65;;;;;;;2.86;100.00;102513.50;5011485;28;20396;-74
2022/01/20 05:25:48;;;;;;;17.33;3.65;;;;;;;2.98;100.00;102475.22;4998729;28;20021;-72
2022/01/20 05:28:13;;;;;;;15.95;2.28;;;;;;;3.25;100.00;102503.03;5010913;28;20049;-72
2022/01/20 05:30:40;;;;;;;8.18;1.95;;;;;;;2.96;100.00;102501.81;5005489;28;20365;-73
2022/01/20 05:33:05;;;;;;;9.43;1.40;;;;;;;2.80;100.00;102506.53;5010508;28;20025;-73
2022/01/20 05:35:31;;;;;;;10.65;1.13;;;;;;;2.90;100.00;102504.56;5012998;28;20048;-73
2022/01/20 05:37:56;;;;;;;9.88;2.25;;;;;;;2.95;100.00;102515.09;4995151;28;20487;-73
2022/01/20 05:40:22;;;;;;;14.10;1.75;;;;;;;3.00;100.00;102513.22;5010664;28;20431;-72
2022/01/20 05:42:47;;;;;;;10.13;1.30;;;;;;;2.66;100.00;102514.72;5006736;28;20129;-73
2022/01/20 05:45:13;;;;;;;15.73;1.63;;;;;;;2.85;100.00;102519.69;5012624;28;20055;-73
2022/01/20 05:47:44;;;;;;;4.90;1.30;;;;;;;2.96;100.00;102543.38;5006271;28;20025;-73
2022/01/20 05:50:14;;;;;;;14.10;1.67;;;;;;;2.84;100.00;102529.44;4999628;28;20493;-73
2022/01/20 05:52:41;;;;;;;10.45;2.22;;;;;;;2.80;100.00;102548.97;5009141;28;20030;-70
2022/01/20 05:55:17;;;;;;;13.07;1.83;;;;;;;2.74;100.00;102546.41;5011095;28;20028;-71
2022/01/20 05:57:42;;;;;;;17.63;2.72;;;;;;;2.76;100.00;102544.63;5009307;28;20033;-73
2022/01/20 06:00:11;;;;;;;16.27;1.58;;;;;;;2.83;100.00;102556.88;5017165;28;20041;-69
2022/01/20 06:03:36;;;;;;;12.45;1.52;;;;;;;2.69;100.00;102566.84;5020185;28;20512;-72
2022/01/20 06:05:22;;;;;;;10.77;1.50;;;;;;;2.65;100.00;102560.72;5014354;28;20112;-71
2022/01/20 06:07:48;;;;;;;10.43;1.77;;;;;;;2.77;100.00;102570.25;5020077;28;20160;-72
2022/01/20 06:10:13;;;;;;;18.35;2.22;;;;;;;2.74;100.00;102567.63;5021641;28;20115;-71
2022/01/20 06:12:38;;;;;;;11.45;3.05;;;;;;;2.74;100.00;102565.00;5003802;28;20033;-71
2022/01/20 06:15:05;;;;;;;17.83;3.00;;;;;;;2.80;100.00;102569.31;5019922;28;20026;-71
2022/01/20 06:17:33;;;;;;;24.75;2.45;;;;;;;2.66;100.00;102567.78;5012285;28;21105;-71
2022/01/20 06:19:59;;;;;;;10.50;1.80;;;;;;;2.71;100.00;102591.56;5020667;28;20507;-71
2022/01/20 06:22:24;;;;;;;16.38;2.20;;;;;;;2.74;100.00;102586.22;5016292;28;20112;-71
2022/01/20 06:24:49;;;;;;;16.48;2.22;;;;;;;2.73;100.00;102588.91;5020155;28;20042;-71
2022/01/20 06:27:16;;;;;;;14.10;2.08;;;;;;;2.67;100.00;102581.91;5016935;28;20026;-71
2022/01/20 06:29:41;;;;;;;8.63;1.88;;;;;;;2.73;100.00;102594.22;5014544;28;20416;-71
2022/01/20 06:32:07;;;;;;;10.45;2.53;;;;;;;2.81;100.00;102608.19;5007774;28;20033;-72
2022/01/20 06:34:32;;;;;;;10.93;1.70;;;;;;;2.70;100.00;102598.66;5016295;28;20041;-72
2022/01/20 06:36:58;;;;;;;12.50;2.05;;;;;;;2.84;100.00;102592.22;5021011;28;20029;-72
2022/01/20 06:39:24;;;;;;;15.25;2.28;;;;;;;2.64;100.00;102598.75;5004342;28;20060;-71
2022/01/20 06:41:50;;;;;;;22.98;2.80;;;;;;;2.71;100.00;102599.53;5016145;28;20029;-72
2022/01/20 06:44:15;;;;;;;10.48;1.92;;;;;;;2.69;100.00;102591.59;5007298;28;20345;-72
2022/01/20 06:46:40;;;;;;;21.13;2.63;;;;;;;2.68;100.00;102600.47;5019816;28;20029;-72
2022/01/20 06:49:06;;;;;;;23.80;2.95;;;;;;;2.68;100.00;102591.59;5015723;28;20067;-72
2022/01/20 06:51:31;;;;;;;22.88;3.67;;;;;;;2.69;100.00;102618.13;5018842;28;20030;-72
2022/01/20 06:53:56;;;;;;;18.65;2.47;;;;;;;2.74;100.00;102622.47;5013120;28;20025;-72
2022/01/20 06:56:22;;;;;;;16.70;2.55;;;;;;;2.70;100.00;102632.25;5016183;28;20218;-72
2022/01/20 06:58:47;;;;;;;17.17;2.92;;;;;;;2.73;100.00;102628.69;5019381;28;20127;-70
2022/01/20 07:01:13;;;;;;;14.73;2.75;;;;;;;2.73;100.00;102634.00;5016496;28;20025;-71
2022/01/20 07:03:38;;;;;;;21.50;2.25;;;;;;;2.63;100.00;102633.28;5012779;28;20166;-71
2022/01/20 07:06:03;;;;;;;11.35;1.92;;;;;;;2.58;100.00;102640.41;5016872;28;20549;-72
2022/01/20 07:08:29;;;;;;;12.60;2.50;;;;;;;2.68;100.00;102648.19;5014692;28;20128;-71
2022/01/20 07:10:54;;;;;;;14.75;2.47;;;;;;;2.55;100.00;102636.91;5018507;28;20048;-72
2022/01/20 07:13:19;;;;;;;11.60;1.90;;;;;;;2.51;99.80;102629.88;5017001;28;20026;-71
2022/01/20 07:15:45;;;;;;;16.52;2.33;;;;;;;2.63;99.44;102644.75;5013518;28;20036;-71
2022/01/20 07:18:10;;;;;;;28.77;4.20;;;;;;;2.49;96.27;102638.78;5013996;28;20422;-71
2022/01/20 07:20:35;;;;;;;12.05;2.30;;;;;;;2.64;97.88;102665.06;5017831;28;20025;-71
2022/01/20 07:23:00;;;;;;;15.50;1.88;;;;;;;2.76;97.54;102674.59;4998548;28;20117;-71
2022/01/20 07:25:26;;;;;;;9.05;2.45;;;;;;;2.81;97.52;102675.41;5017770;28;20057;-71
2022/01/20 07:27:51;;;;;;;10.45;2.05;;;;;;;2.59;96.96;102661.59;5005878;28;20037;-71
2022/01/20 07:30:16;;;;;;;13.48;1.70;;;;;;;2.58;96.40;102672.25;5010468;28;20045;-71
2022/01/20 07:32:42;;;;;;;23.10;2.30;;;;;;;2.69;97.04;102662.31;5013161;28;20040;-71
2022/01/20 07:35:07;;;;;;;15.93;2.80;;;;;;;2.60;91.99;102670.44;4998003;28;20163;-70
2022/01/20 07:37:33;;;;;;;12.95;1.65;;;;;;;2.60;93.25;102689.88;5015364;28;20068;-71
2022/01/20 07:39:58;;;;;;;10.43;1.75;;;;;;;2.65;94.39;102680.06;5011842;28;20486;-71
2022/01/20 07:42:23;;;;;;;18.67;2.97;;;;;;;2.52;91.85;102673.19;5021823;28;20035;-70
2022/01/20 07:44:49;;;;;;;5.72;1.58;;;;;;;2.50;91.82;102667.06;5014015;28;20081;-71
2022/01/20 07:47:15;;;;;;;16.20;2.28;;;;;;;2.63;93.12;102673.06;5014086;28;20030;-71
2022/01/20 07:49:40;;;;;;;12.68;1.92;;;;;;;2.38;90.84;102671.63;5013330;28;20034;-71
2022/01/20 07:52:06;;;;;;;17.85;5.05;;;;;;;2.38;91.34;102681.34;5009690;28;20025;-71
2022/01/20 07:54:31;;;;;;;17.13;3.00;;;;;;;2.47;91.57;102680.34;5008624;28;20113;-71
2022/01/20 07:56:57;;;;;;;18.30;3.05;;;;;;;2.47;91.09;102701.56;5010326;28;20400;-71
2022/01/20 07:59:24;;;;;;;21.13;4.43;;;;;;;2.49;91.54;102708.59;5004585;28;20060;-71
2022/01/20 08:01:50;;;;;;;14.45;5.20;;;;;;;2.34;90.68;102692.91;5013165;28;20099;-70
2022/01/20 08:04:16;;;;;;;15.43;3.58;;;;;;;2.53;91.72;102705.00;5010530;28;20104;-71
2022/01/20 08:06:42;;;;;;;11.23;2.92;;;;;;;2.57;90.26;102712.91;5003902;28;20216;-71
2022/01/20 08:09:08;;;;;;;14.40;2.17;;;;;;;2.50;91.26;102710.34;5017736;28;20033;-71
2022/01/20 08:11:34;;;;;;;9.43;2.47;;;;;;;2.47;91.73;102717.47;5014770;28;20040;-71
2022/01/20 08:13:59;;;;;;;11.68;2.63;;;;;;;2.44;91.00;102718.38;5013008;28;20030;-71
2022/01/20 08:16:24;;;;;;;8.57;2.85;;;;;;;2.65;90.09;102727.81;5019023;28;20052;-71
2022/01/20 08:18:51;;;;;;;14.68;5.72;;;;;;;2.65;89.25;102721.66;5003185;28;20065;-71
2022/01/20 08:21:16;;;;;;;17.55;3.70;;;;;;;2.63;88.52;102728.75;5016498;28;20033;-70
2022/01/20 08:23:42;;;;;;;20.00;3.53;;;;;;;2.79;88.46;102743.53;5013463;28;20112;-71
2022/01/20 08:26:07;;;;;;;14.43;2.47;;;;;;;2.67;88.35;102727.78;5020933;28;20068;-71
2022/01/20 08:28:32;;;;;;;8.65;2.30;;;;;;;2.62;87.90;102725.19;5013111;28;20044;-71
2022/01/20 08:30:58;;;;;;;5.78;1.98;;;;;;;2.56;88.44;102727.94;5007546;28;20068;-71
2022/01/20 08:33:23;;;;;;;9.88;1.63;;;;;;;2.70;88.18;102738.34;5016080;28;20094;-71
2022/01/20 08:35:48;;;;;;;18.90;2.30;;;;;;;2.74;87.66;102744.50;5011935;28;20068;-71
2022/01/20 08:38:14;;;;;;;21.30;10.77;;;;;;;2.81;87.21;102732.88;5018146;28;20036;-71
2022/01/20 08:40:40;;;;;;;57.38;16.52;;;;;;;2.76;87.19;102742.72;5012607;28;20056;-71
2022/01/20 08:43:06;;;;;;;29.77;13.45;;;;;;;2.72;87.14;102749.81;5011679;28;20025;-71
2022/01/20 08:45:33;;;;;;;21.48;11.70;;;;;;;2.72;85.64;102749.81;5010654;28;20087;-71
2022/01/20 08:47:59;;;;;;;51.65;23.77;;;;;;;2.79;86.10;102751.50;5007374;28;20400;-71
2022/01/20 08:50:26;;;;;;;17.17;9.63;;;;;;;2.81;85.72;102747.03;5015748;28;20080;-71
2022/01/20 08:52:52;;;;;;;111.10;39.65;;;;;;;2.82;86.04;102754.09;5013360;28;20281;-71
2022/01/20 08:55:18;;;;;;;22.80;6.40;;;;;;;2.81;85.40;102757.66;5020833;28;20037;-71
2022/01/20 08:57:44;;;;;;;37.03;11.98;;;;;;;2.78;85.42;102768.31;5013463;28;20298;-71
2022/01/20 09:00:10;;;;;;;47.30;13.55;;;;;;;2.94;85.07;102776.03;5017936;28;20044;-71
2022/01/20 09:02:36;;;;;;;50.30;18.35;;;;;;;2.73;84.80;102767.50;5012068;28;20029;-71
2022/01/20 09:05:03;;;;;;;18.70;7.53;;;;;;;2.82;85.50;102771.78;5011810;28;20025;-72
2022/01/20 09:07:28;;;;;;;14.25;7.13;;;;;;;2.88;85.31;102773.50;5002972;28;20037;-70
2022/01/20 09:09:55;;;;;;;23.25;4.82;;;;;;;3.03;84.57;102767.09;5015627;28;20038;-70
2022/01/20 09:17:42;;;;;;;18.08;5.63;;;;;;;2.95;85.66;102772.47;5012885;28;20072;-71
2022/01/20 09:20:08;;;;;;;36.42;9.10;;;;;;;3.10;84.51;102779.34;5015690;28;20038;-72
2022/01/20 09:22:34;;;;;;;61.75;19.10;;;;;;;3.16;84.56;102779.25;5015995;28;20499;-71
2022/01/20 09:24:59;;;;;;;22.88;7.30;;;;;;;3.23;84.42;102772.06;5016682;28;20308;-72
2022/01/20 09:27:24;;;;;;;22.92;6.60;;;;;;;3.27;84.01;102756.09;5008662;28;20158;-71
2022/01/20 09:29:50;;;;;;;19.25;4.35;;;;;;;3.28;84.47;102780.84;5006596;28;20124;-71
2022/01/20 09:32:17;;;;;;;15.75;5.78;;;;;;;3.26;84.39;102770.25;5013098;28;20029;-71
2022/01/20 09:34:42;;;;;;;20.83;3.38;;;;;;;3.14;84.60;102765.13;5016777;28;20017;-71
2022/01/20 09:37:08;;;;;;;19.95;4.00;;;;;;;3.11;84.75;102763.41;5016526;28;20676;-71
2022/01/20 09:39:34;;;;;;;12.45;4.32;;;;;;;3.50;84.57;102775.16;5017356;28;20380;-71
2022/01/20 09:41:59;;;;;;;15.77;5.50;;;;;;;3.44;85.26;102782.31;5018541;28;20067;-71
2022/01/20 09:44:25;;;;;;;14.57;4.10;;;;;;;3.51;84.17;102775.16;5017197;28;20084;-71
2022/01/20 09:46:51;;;;;;;17.05;4.25;;;;;;;3.48;83.83;102779.63;5015139;28;20034;-72
2022/01/20 09:49:17;;;;;;;11.35;3.75;;;;;;;3.49;84.83;102798.22;5013525;28;20026;-71
2022/01/20 09:51:43;;;;;;;14.85;5.10;;;;;;;3.46;83.62;102808.88;5014703;28;20099;-72
2022/01/20 09:54:09;;;;;;;19.38;5.05;;;;;;;3.72;83.79;102813.75;5013224;28;20025;-72
2022/01/20 09:56:36;;;;;;;14.85;3.33;;;;;;;3.38;84.38;102801.03;5020346;28;20025;-71
2022/01/20 09:59:02;;;;;;;15.93;2.75;;;;;;;3.36;85.35;102816.13;5014407;28;20033;-72
2022/01/20 10:01:46;;;;;;;14.90;3.03;;;;;;;3.45;85.50;102828.38;5016755;28;20056;-72
2022/01/20 10:04:18;;;;;;;14.90;3.65;;;;;;;3.38;85.86;102832.00;5033114;28;20057;-71
2022/01/20 10:07:04;;;;;;;17.15;2.95;;;;;;;3.36;85.12;102841.78;5013318;28;20029;-73
2022/01/20 10:09:36;;;;;;;11.55;2.63;;;;;;;3.33;85.85;102824.13;5019042;28;20025;-72
2022/01/20 10:12:03;;;;;;;15.85;2.92;;;;;;;3.79;85.36;102843.75;5024040;28;20205;-72
2022/01/20 10:14:38;;;;;;;26.90;6.13;;;;;;;4.58;84.32;102842.28;5013532;28;20080;-72
2022/01/20 10:17:21;;;;;;;35.22;14.40;;;;;;;5.68;82.00;102841.59;5019277;28;20068;-72
2022/01/20 10:19:49;;;;;;;14.80;6.07;;;;;;;6.30;76.99;102834.69;5011614;28;20030;-72
2022/01/20 10:22:17;;;;;;;19.38;7.28;;;;;;;6.53;77.35;102835.81;5018385;28;20034;-72
2022/01/20 10:24:57;;;;;;;18.67;7.38;;;;;;;6.27;76.13;102850.78;5018763;28;20057;-71
2022/01/20 10:27:22;;;;;;;10.32;4.00;;;;;;;5.44;76.97;102849.28;5016414;28;20100;-72
2022/01/20 10:30:05;;;;;;;21.20;7.40;;;;;;;5.11;77.25;102843.81;5014063;28;20033;-71
2022/01/20 10:32:48;;;;;;;21.85;7.28;;;;;;;4.55;80.94;102844.13;5013649;28;20037;-71
2022/01/20 10:35:15;;;;;;;10.70;5.30;;;;;;;4.38;78.99;102855.97;5017051;28;20037;-71
2022/01/20 10:38:01;;;;;;;23.67;12.70;;;;;;;4.42;79.34;102859.47;5014502;28;20032;-71
2022/01/20 10:40:27;;;;;;;12.05;4.25;;;;;;;4.32;79.08;102858.78;5002077;28;20464;-72
2022/01/20 10:42:53;;;;;;;15.55;4.72;;;;;;;4.59;79.55;102862.66;5007279;28;20037;-71
2022/01/20 10:45:29;;;;;;;16.10;5.05;;;;;;;5.09;77.85;102874.94;5011283;28;20033;-71
2022/01/20 10:47:58;;;;;;;10.25;1.83;;;;;;;4.97;76.81;102872.56;5000472;28;20407;-72
2022/01/20 10:50:27;;;;;;;21.38;2.95;;;;;;;4.89;76.42;102876.25;5017255;28;20033;-72
2022/01/20 10:52:52;;;;;;;14.00;2.67;;;;;;;4.74;75.42;102881.91;5010660;28;20038;-71
2022/01/20 10:55:20;;;;;;;7.43;2.15;;;;;;;4.29;74.62;102886.28;5011808;28;20036;-71
2022/01/20 10:57:45;;;;;;;6.80;1.75;;;;;;;4.12;76.00;102880.41;5015472;28;20452;-71
2022/01/20 11:00:15;;;;;;;9.70;1.67;;;;;;;4.33;76.64;102879.16;5019689;28;20048;-72
2022/01/20 11:02:41;;;;;;;9.95;3.00;;;;;;;4.75;72.61;102883.66;5015658;28;20026;-72
2022/01/20 11:05:07;;;;;;;13.52;2.00;;;;;;;5.34;70.45;102863.72;5015154;28;20525;-73
2022/01/20 11:07:33;;;;;;;28.45;9.73;;;;;;;4.88;72.72;102870.97;5016971;28;20041;-71
2022/01/20 11:10:04;;;;;;;28.20;10.50;;;;;;;4.65;73.71;102865.19;5001430;28;20388;-71
2022/01/20 11:12:30;;;;;;;19.25;5.15;;;;;;;4.56;72.84;102872.50;5017472;28;20033;-71
2022/01/20 11:14:57;;;;;;;19.92;8.00;;;;;;;4.77;74.27;102871.16;5016127;28;20072;-71
2022/01/20 11:17:28;;;;;;;17.85;6.55;;;;;;;4.57;74.82;102861.81;5012485;28;20083;-71
2022/01/20 11:19:57;;;;;;;10.75;4.78;;;;;;;4.38;75.10;102857.75;5004209;28;20030;-70
2022/01/20 11:22:22;;;;;;;18.08;6.43;;;;;;;4.51;75.79;102851.28;5011345;28;20121;-70
2022/01/20 11:25:06;;;;;;;12.25;2.70;;;;;;;4.52;74.75;102865.47;5014548;28;20392;-69
2022/01/20 11:27:35;;;;;;;15.55;4.15;;;;;;;4.41;74.05;102860.38;5001007;28;20029;-69
2022/01/20 11:30:15;;;;;;;10.65;2.17;;;;;;;5.30;72.07;102856.75;5008856;28;20076;-70
2022/01/20 11:32:42;;;;;;;14.90;4.72;;;;;;;6.37;69.39;102844.25;5011400;28;20125;-70
2022/01/20 11:35:09;;;;;;;10.65;2.90;;;;;;;7.05;65.29;102844.06;5004424;28;20029;-70
2022/01/20 11:37:37;;;;;;;10.57;2.17;;;;;;;7.62;63.03;102839.59;5020153;28;20034;-73
2022/01/20 11:40:12;;;;;;;9.07;1.73;;;;;;;7.55;64.91;102848.72;5011873;28;20038;-70
2022/01/20 11:42:37;;;;;;;9.02;1.50;;;;;;;7.12;65.34;102848.31;5009007;28;20140;-71
2022/01/20 11:45:22;;;;;;;13.38;2.25;;;;;;;6.91;66.22;102841.81;5012220;28;20029;-71
2022/01/20 11:47:48;;;;;;;6.50;1.80;;;;;;;6.22;65.74;102829.56;5004100;28;20363;-72
2022/01/20 11:50:17;;;;;;;12.10;1.85;;;;;;;6.28;67.12;102821.38;5000292;28;20506;-71
2022/01/20 11:52:42;;;;;;;8.10;2.05;;;;;;;6.49;65.02;102813.66;5004914;28;20029;-73
2022/01/20 11:55:14;;;;;;;11.40;1.45;;;;;;;7.14;63.08;102821.56;5014660;28;20294;-70
2022/01/20 11:57:39;;;;;;;8.48;2.10;;;;;;;8.83;61.77;102831.78;5013006;28;20029;-70
2022/01/20 12:00:26;;;;;;;3.72;1.38;;;;;;;9.26;55.27;102837.25;5017971;28;20384;-70
2022/01/20 12:02:51;;;;;;;3.00;1.05;;;;;;;9.32;56.64;102836.13;5011393;28;20030;-70
2022/01/20 12:05:18;;;;;;;11.43;1.60;;;;;;;8.47;57.59;102830.41;5017097;28;20034;-70
2022/01/20 12:07:43;;;;;;;10.45;2.22;;;;;;;8.92;56.89;102843.94;5015586;28;20034;-70
2022/01/20 12:10:17;;;;;;;9.75;2.40;;;;;;;9.27;53.70;102823.78;5012991;28;20087;-70
2022/01/20 12:12:43;;;;;;;7.78;1.50;;;;;;;9.89;51.24;102826.56;5015328;28;20464;-70
2022/01/20 12:15:21;;;;;;;9.38;1.55;;;;;;;10.75;51.21;102839.78;5009747;28;20260;-69
2022/01/20 12:17:51;;;;;;;13.32;6.97;;;;;;;10.72;50.92;102821.13;5017074;28;20057;-69
2022/01/20 12:20:17;;;;;;;5.00;1.50;;;;;;;10.01;52.33;102835.91;5020657;28;20031;-69
2022/01/20 12:22:44;;;;;;;9.05;1.60;;;;;;;10.45;50.16;102825.94;5019856;28;20029;-70